Terminal Aerodrome Forecast
Issued by NWS Billings, MT

Home | Current Version | Previous Version | Text Only | Print | Product List | Glossary On
Versions: 1 2 3 4 5 6 7 8 9 10 11 12 13 14 15 16 17 18 19 20 21 22 23 24 25 26 27 28 29 30 31 32 33 34 35 36
504
FTUS45 KBYZ 301120
TAFMLS
TAF
KMLS 301120Z 3012/0112 30012KT P6SM OVC017
      TEMPO 3013/3016 SCT018 BKN025
     FM301600 20007KT P6SM SCT025 BKN100
     FM010000 VRB05KT P6SM SCT150
     FM010900 VRB05KT P6SM SCT025=

USA.gov is the U.S. government's official web portal to all federal, state and local government web resources and services.